createdAt,value
2018-08-20T00:00:11.469Z,26.80
2018-08-20T00:05:15.142Z,26.79
2018-08-20T00:10:18.786Z,26.82
2018-08-20T00:15:22.519Z,26.79
2018-08-20T00:20:26.324Z,26.76
2018-08-20T00:25:30.081Z,26.81
2018-08-20T00:30:33.739Z,26.83
2018-08-20T00:35:37.402Z,26.79
2018-08-20T00:40:41.076Z,26.80
2018-08-20T00:45:44.782Z,26.78
2018-08-20T00:50:48.476Z,26.76
2018-08-20T00:55:52.142Z,26.80
2018-08-20T01:00:55.788Z,26.79
2018-08-20T01:05:59.482Z,26.84
2018-08-20T01:11:03.129Z,26.83
2018-08-20T01:16:06.853Z,26.82
2018-08-20T01:21:10.573Z,26.85
2018-08-20T01:26:14.289Z,26.80
2018-08-20T01:31:18.061Z,26.80
2018-08-20T01:36:21.722Z,26.84
2018-08-20T01:41:25.413Z,26.85
2018-08-20T01:46:29.058Z,26.82
2018-08-20T01:51:32.648Z,26.86
2018-08-20T01:56:36.331Z,26.89
2018-08-20T02:01:39.974Z,26.83
2018-08-20T02:06:43.663Z,26.78
2018-08-20T02:11:47.355Z,26.80
2018-08-20T02:16:51.009Z,26.80
2018-08-20T02:21:54.747Z,26.82
2018-08-20T02:26:58.430Z,26.83
2018-08-20T02:32:02.095Z,26.75
2018-08-20T02:37:06.150Z,26.78
2018-08-20T02:42:09.830Z,26.76
2018-08-20T02:47:13.505Z,26.74
2018-08-20T02:52:17.205Z,26.73
2018-08-20T02:57:20.822Z,26.68
2018-08-20T03:02:24.453Z,26.68
2018-08-20T03:07:28.212Z,26.66
2018-08-20T03:12:31.982Z,26.60
2018-08-20T03:17:35.640Z,26.62
2018-08-20T03:22:39.339Z,26.60
2018-08-20T03:27:43.064Z,26.58
2018-08-20T03:32:46.782Z,26.55
2018-08-20T03:37:50.505Z,26.56
2018-08-20T03:42:54.227Z,26.41
2018-08-20T03:47:58.012Z,26.14
2018-08-20T03:53:01.684Z,26.00
2018-08-20T03:58:05.325Z,25.68
2018-08-20T04:03:08.991Z,25.74
2018-08-20T04:08:12.911Z,25.65
2018-08-20T04:13:16.677Z,24.16
2018-08-20T04:18:20.314Z,23.78
2018-08-20T04:23:23.997Z,23.52
2018-08-20T04:28:27.597Z,23.32
2018-08-20T04:33:31.245Z,23.17
2018-08-20T04:38:34.841Z,22.82
2018-08-20T04:43:38.480Z,22.64
2018-08-20T04:48:42.129Z,22.82
2018-08-20T04:53:45.771Z,22.76
2018-08-20T04:58:49.606Z,22.56
2018-08-20T05:03:53.727Z,22.24
2018-08-20T05:08:57.413Z,22.18
2018-08-20T05:14:01.060Z,22.15
2018-08-20T05:19:04.757Z,22.39
2018-08-20T05:24:08.371Z,22.24
2018-08-20T05:29:12.015Z,22.17
2018-08-20T05:34:15.686Z,22.23
2018-08-20T05:39:19.322Z,22.38
2018-08-20T05:44:24.846Z,22.46
2018-08-20T05:49:28.533Z,22.51
2018-08-20T05:54:32.159Z,22.43
2018-08-20T05:59:35.884Z,22.54
2018-08-20T06:04:39.894Z,22.55
2018-08-20T06:09:43.569Z,22.68
2018-08-20T06:14:47.184Z,22.69
2018-08-20T06:19:50.845Z,22.67
2018-08-20T06:24:54.483Z,22.85
2018-08-20T06:29:58.137Z,22.91
2018-08-20T06:35:02.679Z,22.89
2018-08-20T06:40:08.278Z,22.92
2018-08-20T06:45:15.444Z,23.00
2018-08-20T06:50:19.152Z,22.97
2018-08-20T06:55:22.996Z,23.05
2018-08-20T07:00:26.780Z,23.05
2018-08-20T07:05:30.474Z,23.04
2018-08-20T07:10:42.248Z,23.11
2018-08-20T07:15:45.920Z,23.26
2018-08-20T07:20:49.573Z,23.31
2018-08-20T07:25:53.344Z,23.28
2018-08-20T07:30:57.020Z,23.36
2018-08-20T07:36:00.701Z,23.39
2018-08-20T07:41:04.526Z,23.45
2018-08-20T07:46:08.273Z,23.53
2018-08-20T07:51:11.942Z,23.55
2018-08-20T07:56:15.687Z,23.62
2018-08-20T08:01:19.365Z,23.68
2018-08-20T08:06:23.009Z,23.70
2018-08-20T08:11:26.753Z,23.74
2018-08-20T08:16:30.516Z,23.81
2018-08-20T08:21:34.250Z,23.84
2018-08-20T08:26:38.116Z,23.92
2018-08-20T08:31:43.919Z,24.03
2018-08-20T08:36:47.742Z,24.13
2018-08-20T08:41:52.133Z,24.17
2018-08-20T08:46:55.899Z,24.27
2018-08-20T08:52:00.199Z,24.46
2018-08-20T08:57:04.107Z,24.46
2018-08-20T09:02:07.872Z,24.45
2018-08-20T09:07:11.546Z,24.66
2018-08-20T09:12:15.255Z,24.52
2018-08-20T09:17:18.964Z,24.51
2018-08-20T09:22:22.639Z,24.66
2018-08-20T09:27:26.430Z,24.60
2018-08-20T09:32:30.117Z,24.67
2018-08-20T09:37:33.786Z,24.68
2018-08-20T09:42:38.161Z,24.91
2018-08-20T09:47:42.696Z,24.80
2018-08-20T09:52:46.541Z,24.62
2018-08-20T09:57:50.229Z,24.65
2018-08-20T10:02:53.875Z,24.75
2018-08-20T10:07:57.457Z,24.79
2018-08-20T10:13:01.204Z,24.97
2018-08-20T10:18:04.950Z,24.98
2018-08-20T10:23:08.764Z,24.90
2018-08-20T10:28:12.466Z,24.76
2018-08-20T10:33:16.125Z,24.85
2018-08-20T10:38:19.776Z,24.70
2018-08-20T10:43:23.382Z,24.74
2018-08-20T10:48:27.007Z,24.66
2018-08-20T10:53:30.665Z,24.70
2018-08-20T10:58:34.335Z,24.63
2018-08-20T11:03:40.130Z,24.57
2018-08-20T11:08:43.762Z,24.63
2018-08-20T11:13:47.828Z,24.78
2018-08-20T11:18:51.558Z,24.81
2018-08-20T11:23:57.598Z,24.89
2018-08-20T11:29:01.274Z,24.97
2018-08-20T11:34:04.947Z,25.09
2018-08-20T11:39:14.832Z,25.05
2018-08-20T11:44:18.495Z,25.11
2018-08-20T11:49:22.337Z,25.12
2018-08-20T11:54:27.052Z,25.14
2018-08-20T11:59:30.723Z,25.15
2018-08-20T12:04:34.410Z,25.17
2018-08-20T12:09:38.070Z,25.20
2018-08-20T12:14:42.634Z,25.22
2018-08-20T12:19:46.307Z,25.24
2018-08-20T12:24:49.979Z,25.25
2018-08-20T12:29:53.871Z,25.27
2018-08-20T12:34:58.308Z,25.27
2018-08-20T12:40:05.231Z,25.26
2018-08-20T12:45:09.031Z,25.28
2018-08-20T12:50:12.633Z,25.28
2018-08-20T12:55:16.346Z,25.28
2018-08-20T13:00:20.042Z,25.29
2018-08-20T13:05:23.753Z,25.28
2018-08-20T13:10:27.465Z,25.29
2018-08-20T13:15:31.119Z,25.28
2018-08-20T13:20:34.835Z,25.41
2018-08-20T13:25:38.539Z,25.40
2018-08-20T13:30:42.231Z,25.37
2018-08-20T13:35:45.858Z,25.36
2018-08-20T13:40:49.614Z,25.36
2018-08-20T13:45:53.309Z,25.37
2018-08-20T13:50:57.131Z,25.38
2018-08-20T13:56:00.846Z,25.38
2018-08-20T14:01:04.652Z,25.38
2018-08-20T14:11:45.897Z,25.39
2018-08-20T14:16:49.669Z,25.40
2018-08-20T14:21:54.099Z,25.42
2018-08-20T14:26:57.697Z,25.47
2018-08-20T14:32:01.448Z,25.51
2018-08-20T14:37:05.610Z,25.54
2018-08-20T14:42:09.530Z,25.57
2018-08-20T14:47:13.665Z,25.61
2018-08-20T14:52:17.741Z,25.63
2018-08-20T14:57:21.612Z,25.66
2018-08-20T15:02:26.044Z,25.70
2018-08-20T15:07:29.891Z,25.74
2018-08-20T15:12:33.514Z,25.77
2018-08-20T15:17:37.300Z,25.79
2018-08-20T15:22:40.986Z,25.88
2018-08-20T15:27:44.670Z,25.84
2018-08-20T15:32:48.395Z,25.86
2018-08-20T15:37:52.058Z,25.90
2018-08-20T15:42:55.936Z,25.92
2018-08-20T15:47:59.716Z,25.93
2018-08-20T15:53:03.370Z,25.98
2018-08-20T15:58:07.035Z,26.03
2018-08-20T16:03:10.686Z,26.14
2018-08-20T16:08:14.500Z,26.15
2018-08-20T16:13:18.453Z,26.26
2018-08-20T16:18:22.153Z,26.30
2018-08-20T16:23:26.119Z,26.25
2018-08-20T16:28:30.820Z,26.28
2018-08-20T16:33:34.522Z,26.30
2018-08-20T16:38:38.258Z,26.22
2018-08-20T16:43:42.052Z,26.19
2018-08-20T16:48:45.854Z,26.24
2018-08-20T16:53:49.621Z,26.25
2018-08-20T16:58:53.409Z,26.28
2018-08-20T17:03:57.064Z,26.30
2018-08-20T17:09:00.748Z,26.35
2018-08-20T17:14:04.473Z,26.29
2018-08-20T17:19:08.174Z,26.31
2018-08-20T17:24:11.920Z,26.28
2018-08-20T17:29:15.689Z,26.36
2018-08-20T17:34:19.604Z,26.34
2018-08-20T17:39:23.370Z,26.36
2018-08-20T17:44:26.977Z,26.34
2018-08-20T17:49:31.348Z,26.43
2018-08-20T17:54:35.079Z,26.30
2018-08-20T17:59:39.755Z,26.18
2018-08-20T18:04:44.666Z,26.06
2018-08-20T18:09:48.360Z,25.91
2018-08-20T18:14:56.842Z,25.87
2018-08-20T18:25:09.039Z,25.77
2018-08-20T18:30:14.243Z,25.88
2018-08-20T18:35:21.576Z,25.89
2018-08-20T18:40:25.418Z,25.95
2018-08-20T18:45:29.306Z,25.95
2018-08-20T18:50:33.095Z,26.07
2018-08-20T18:55:36.949Z,26.08
2018-08-20T19:00:40.784Z,26.06
2018-08-20T19:05:50.621Z,26.09
2018-08-20T19:10:54.476Z,25.94
2018-08-20T19:15:58.246Z,26.04
2018-08-20T19:21:02.198Z,26.11
2018-08-20T19:26:06.459Z,26.07
2018-08-20T19:31:10.593Z,26.15
2018-08-20T19:36:14.487Z,26.11
2018-08-20T19:41:18.513Z,26.17
2018-08-20T19:46:39.420Z,26.17
2018-08-20T19:51:44.820Z,26.21
2018-08-20T19:56:48.627Z,26.22
2018-08-20T20:01:53.346Z,26.20
2018-08-20T20:06:58.369Z,26.24
2018-08-20T20:12:02.095Z,26.22
2018-08-20T20:17:05.949Z,26.24
2018-08-20T20:22:14.991Z,26.21
2018-08-20T20:27:18.801Z,26.20
2018-08-20T20:32:22.567Z,26.19
2018-08-20T20:37:26.493Z,26.16
2018-08-20T20:42:31.271Z,26.17
2018-08-20T20:47:34.958Z,26.19
2018-08-20T20:52:38.946Z,26.18
2018-08-20T20:57:42.826Z,26.19
2018-08-20T21:02:46.701Z,26.21
2018-08-20T21:07:50.865Z,26.22
2018-08-20T21:12:54.685Z,26.22
2018-08-20T21:17:58.631Z,26.23
2018-08-20T21:23:02.419Z,26.23
2018-08-20T21:28:06.060Z,26.22
2018-08-20T21:33:10.436Z,26.21
2018-08-20T21:38:14.125Z,26.24
2018-08-20T21:43:17.737Z,26.25
2018-08-20T21:48:21.471Z,26.22
2018-08-20T21:53:30.449Z,26.22
2018-08-20T21:58:35.605Z,26.21
2018-08-20T22:03:39.940Z,26.21
2018-08-20T22:08:43.720Z,26.20
2018-08-20T22:13:48.058Z,26.21
2018-08-20T22:18:58.423Z,26.22
2018-08-20T22:24:03.425Z,26.21
2018-08-20T22:29:07.134Z,26.20
2018-08-20T22:34:10.834Z,26.19
2018-08-20T22:39:14.549Z,26.17
2018-08-20T22:44:18.300Z,26.20
2018-08-20T22:49:22.142Z,26.19
2018-08-20T22:54:25.875Z,26.18
2018-08-20T22:59:29.655Z,26.19
2018-08-20T23:04:33.337Z,26.19
2018-08-20T23:09:37.045Z,26.16
2018-08-20T23:14:40.826Z,26.14
2018-08-20T23:19:44.481Z,26.15
2018-08-20T23:24:52.210Z,26.13
2018-08-20T23:29:55.885Z,26.11
2018-08-20T23:35:00.008Z,26.13
2018-08-20T23:40:07.309Z,26.11
2018-08-20T23:45:10.978Z,26.13
2018-08-20T23:50:14.689Z,26.12
2018-08-20T23:55:18.360Z,26.09
